CheckWX is a tool to help pilots better visualize weather data.  It is not intended as a substitute for an official pre-flight weather briefing.

14:24:50 UTC

PABV METAR
Birchwood Airport
Birchwood, Alaska, USA
Current

29 mins ago

PABV 201356Z AUTO 00000KT 6SM HZ SCT044 OVC120 08/02 A2984 RMK AO2 SLP112 T00830022
Observed
Aug-20 @ 13:56 UTC
Visibility
6 SM
Flight Rules
VFR
Conditions
Haze
Cloud Levels
  • Scattered at 4,400' AGL
  • Overcast at 12,000' AGL
Temperature
C / 46°F
Dewpoint
C / 36°F
Humidity
66%
Altimeter
29.84" Hg
Pressure
1010.52 hPa
Previous

1 hour ago

PABV 201256Z AUTO 00000KT 5SM HZ BKN050 OVC110 07/02 A2985 RMK AO2 SLP115 T00720022
Observed
Aug-20 @ 12:56 UTC
Visibility
5 SM
Flight Rules
MVFR
Conditions
Haze
Cloud Levels
  • Broken at 5,000' AGL
  • Overcast at 11,000' AGL
Temperature
C / 45°F
Dewpoint
C / 36°F
Humidity
71%
Altimeter
29.85" Hg
Pressure
1010.82 hPa
Previous

2 hours ago

PABV 201156Z AUTO 03003KT 6SM HZ OVC041 10/01 A2986 RMK AO2 SLP116 T01000006 10133 20094 58004
Observed
Aug-20 @ 11:56 UTC
Wind
  • 030° at 3 KTS
Visibility
6 SM
Flight Rules
VFR
Conditions
Haze
Cloud Levels
  • Overcast at 4,100' AGL
Temperature
10°C / 50°F
Dewpoint
C / 34°F
Humidity
54%
Altimeter
29.86" Hg
Pressure
1011.22 hPa